sensor_id;sensor_type;location;lat;lon;timestamp;P1;durP1;ratioP1;P2;durP2;ratioP2
568;SDS011;269;48.884;9.192;2023-02-23T00:01:35;21.88;;;19.58;;
568;SDS011;269;48.884;9.192;2023-02-23T00:04:02;20.63;;;18.42;;
568;SDS011;269;48.884;9.192;2023-02-23T00:06:30;20.80;;;18.15;;
568;SDS011;269;48.884;9.192;2023-02-23T00:09:00;19.48;;;17.42;;
568;SDS011;269;48.884;9.192;2023-02-23T00:11:29;19.80;;;17.27;;
568;SDS011;269;48.884;9.192;2023-02-23T00:13:57;18.33;;;16.40;;
568;SDS011;269;48.884;9.192;2023-02-23T00:16:27;18.38;;;16.58;;
568;SDS011;269;48.884;9.192;2023-02-23T00:18:54;18.27;;;16.33;;
568;SDS011;269;48.884;9.192;2023-02-23T00:21:25;20.25;;;18.15;;
568;SDS011;269;48.884;9.192;2023-02-23T00:23:55;19.40;;;16.60;;
568;SDS011;269;48.884;9.192;2023-02-23T00:26:24;21.05;;;17.05;;
568;SDS011;269;48.884;9.192;2023-02-23T00:28:55;17.65;;;15.18;;
568;SDS011;269;48.884;9.192;2023-02-23T00:31:23;20.50;;;18.13;;
568;SDS011;269;48.884;9.192;2023-02-23T00:33:52;18.63;;;16.58;;
568;SDS011;269;48.884;9.192;2023-02-23T00:36:22;20.52;;;18.33;;
568;SDS011;269;48.884;9.192;2023-02-23T00:38:51;18.88;;;16.88;;
568;SDS011;269;48.884;9.192;2023-02-23T00:41:20;20.92;;;17.40;;
568;SDS011;269;48.884;9.192;2023-02-23T00:43:48;20.48;;;17.63;;
568;SDS011;269;48.884;9.192;2023-02-23T00:46:20;19.58;;;16.73;;
568;SDS011;269;48.884;9.192;2023-02-23T00:48:49;20.10;;;18.10;;
568;SDS011;269;48.884;9.192;2023-02-23T00:51:18;20.45;;;18.33;;
568;SDS011;269;48.884;9.192;2023-02-23T00:53:44;19.45;;;17.45;;
568;SDS011;269;48.884;9.192;2023-02-23T00:56:12;19.73;;;17.65;;
568;SDS011;269;48.884;9.192;2023-02-23T00:58:41;22.08;;;19.45;;
568;SDS011;269;48.884;9.192;2023-02-23T01:01:08;22.77;;;19.15;;
568;SDS011;269;48.884;9.192;2023-02-23T01:03:38;22.15;;;19.50;;
568;SDS011;269;48.884;9.192;2023-02-23T01:06:07;22.23;;;19.83;;
568;SDS011;269;48.884;9.192;2023-02-23T01:08:38;23.27;;;20.38;;
568;SDS011;269;48.884;9.192;2023-02-23T01:11:06;23.40;;;18.60;;
568;SDS011;269;48.884;9.192;2023-02-23T01:13:34;25.25;;;21.38;;
568;SDS011;269;48.884;9.192;2023-02-23T01:16:03;23.35;;;20.92;;
568;SDS011;269;48.884;9.192;2023-02-23T01:18:32;22.35;;;20.00;;
568;SDS011;269;48.884;9.192;2023-02-23T01:21:00;26.08;;;22.98;;
568;SDS011;269;48.884;9.192;2023-02-23T01:23:27;25.65;;;22.52;;
568;SDS011;269;48.884;9.192;2023-02-23T01:25:55;23.45;;;20.95;;
568;SDS011;269;48.884;9.192;2023-02-23T01:28:22;25.20;;;22.45;;
568;SDS011;269;48.884;9.192;2023-02-23T01:30:49;24.73;;;21.80;;
568;SDS011;269;48.884;9.192;2023-02-23T01:33:16;24.75;;;22.20;;
568;SDS011;269;48.884;9.192;2023-02-23T01:35:43;25.67;;;23.15;;
568;SDS011;269;48.884;9.192;2023-02-23T01:38:10;24.30;;;21.67;;
568;SDS011;269;48.884;9.192;2023-02-23T01:40:41;25.10;;;22.60;;
568;SDS011;269;48.884;9.192;2023-02-23T01:43:11;29.50;;;21.10;;
568;SDS011;269;48.884;9.192;2023-02-23T01:45:40;24.70;;;22.08;;
568;SDS011;269;48.884;9.192;2023-02-23T01:48:11;25.52;;;22.80;;
568;SDS011;269;48.884;9.192;2023-02-23T01:50:43;29.60;;;24.38;;
568;SDS011;269;48.884;9.192;2023-02-23T01:53:39;23.45;;;21.15;;
568;SDS011;269;48.884;9.192;2023-02-23T01:56:13;24.88;;;22.17;;
568;SDS011;269;48.884;9.192;2023-02-23T01:58:45;24.05;;;21.25;;
568;SDS011;269;48.884;9.192;2023-02-23T02:01:16;23.63;;;21.15;;
568;SDS011;269;48.884;9.192;2023-02-23T02:03:44;25.65;;;22.67;;
568;SDS011;269;48.884;9.192;2023-02-23T02:06:15;23.42;;;21.02;;
568;SDS011;269;48.884;9.192;2023-02-23T02:08:44;24.67;;;22.00;;
568;SDS011;269;48.884;9.192;2023-02-23T02:11:19;25.20;;;22.60;;
568;SDS011;269;48.884;9.192;2023-02-23T02:14:03;25.17;;;22.58;;
568;SDS011;269;48.884;9.192;2023-02-23T02:16:48;24.50;;;21.90;;
568;SDS011;269;48.884;9.192;2023-02-23T02:22:39;28.30;;;23.80;;
568;SDS011;269;48.884;9.192;2023-02-23T02:25:32;26.10;;;23.35;;
568;SDS011;269;48.884;9.192;2023-02-23T02:31:10;27.17;;;24.15;;
568;SDS011;269;48.884;9.192;2023-02-23T02:34:24;26.95;;;24.25;;
568;SDS011;269;48.884;9.192;2023-02-23T02:37:26;26.52;;;23.27;;
568;SDS011;269;48.884;9.192;2023-02-23T02:40:03;27.48;;;23.30;;
568;SDS011;269;48.884;9.192;2023-02-23T02:42:47;28.08;;;22.55;;
568;SDS011;269;48.884;9.192;2023-02-23T02:45:34;25.77;;;23.30;;
568;SDS011;269;48.884;9.192;2023-02-23T02:48:09;26.20;;;23.60;;
568;SDS011;269;48.884;9.192;2023-02-23T02:50:52;27.40;;;24.70;;
568;SDS011;269;48.884;9.192;2023-02-23T02:53:26;27.35;;;24.45;;
568;SDS011;269;48.884;9.192;2023-02-23T02:56:00;26.02;;;23.38;;
568;SDS011;269;48.884;9.192;2023-02-23T02:58:30;30.77;;;26.30;;
568;SDS011;269;48.884;9.192;2023-02-23T03:01:04;26.60;;;23.80;;
568;SDS011;269;48.884;9.192;2023-02-23T03:03:49;28.25;;;25.02;;
568;SDS011;269;48.884;9.192;2023-02-23T03:06:36;30.38;;;24.70;;
568;SDS011;269;48.884;9.192;2023-02-23T03:09:33;28.13;;;25.08;;
568;SDS011;269;48.884;9.192;2023-02-23T03:12:25;27.50;;;23.15;;
568;SDS011;269;48.884;9.192;2023-02-23T03:15:21;27.02;;;24.23;;
568;SDS011;269;48.884;9.192;2023-02-23T03:18:16;26.88;;;23.77;;
568;SDS011;269;48.884;9.192;2023-02-23T03:21:14;28.83;;;24.60;;
568;SDS011;269;48.884;9.192;2023-02-23T03:24:06;27.10;;;24.20;;
568;SDS011;269;48.884;9.192;2023-02-23T03:26:59;27.15;;;24.25;;
568;SDS011;269;48.884;9.192;2023-02-23T03:29:48;27.10;;;24.30;;
568;SDS011;269;48.884;9.192;2023-02-23T03:32:43;27.80;;;24.88;;
568;SDS011;269;48.884;9.192;2023-02-23T03:35:33;26.15;;;23.33;;
568;SDS011;269;48.884;9.192;2023-02-23T03:38:24;27.30;;;24.60;;
568;SDS011;269;48.884;9.192;2023-02-23T03:41:15;26.15;;;23.45;;
568;SDS011;269;48.884;9.192;2023-02-23T03:44:04;24.40;;;21.80;;
568;SDS011;269;48.884;9.192;2023-02-23T03:46:54;25.45;;;22.75;;
568;SDS011;269;48.884;9.192;2023-02-23T03:49:41;26.35;;;22.65;;
568;SDS011;269;48.884;9.192;2023-02-23T03:52:29;24.58;;;22.17;;
568;SDS011;269;48.884;9.192;2023-02-23T03:55:19;24.80;;;22.20;;
568;SDS011;269;48.884;9.192;2023-02-23T03:58:07;24.10;;;21.65;;
568;SDS011;269;48.884;9.192;2023-02-23T04:00:57;24.42;;;21.90;;
568;SDS011;269;48.884;9.192;2023-02-23T04:03:45;23.90;;;21.48;;
568;SDS011;269;48.884;9.192;2023-02-23T04:06:35;24.75;;;22.10;;
568;SDS011;269;48.884;9.192;2023-02-23T04:09:22;24.10;;;21.48;;
568;SDS011;269;48.884;9.192;2023-02-23T04:12:08;23.90;;;21.42;;
568;SDS011;269;48.884;9.192;2023-02-23T04:14:56;24.25;;;21.80;;
568;SDS011;269;48.884;9.192;2023-02-23T04:17:29;25.00;;;22.30;;
568;SDS011;269;48.884;9.192;2023-02-23T04:20:02;25.33;;;22.73;;
568;SDS011;269;48.884;9.192;2023-02-23T04:22:31;24.08;;;21.73;;
568;SDS011;269;48.884;9.192;2023-02-23T04:24:59;24.60;;;22.13;;
568;SDS011;269;48.884;9.192;2023-02-23T04:27:26;25.48;;;22.98;;
568;SDS011;269;48.884;9.192;2023-02-23T04:29:54;23.40;;;20.83;;
568;SDS011;269;48.884;9.192;2023-02-23T04:32:20;24.27;;;21.02;;
568;SDS011;269;48.884;9.192;2023-02-23T04:34:49;23.98;;;20.63;;
568;SDS011;269;48.884;9.192;2023-02-23T04:37:16;24.23;;;21.05;;
568;SDS011;269;48.884;9.192;2023-02-23T04:39:43;23.90;;;21.50;;
568;SDS011;269;48.884;9.192;2023-02-23T04:42:13;23.75;;;21.35;;
568;SDS011;269;48.884;9.192;2023-02-23T04:44:41;23.48;;;21.00;;
568;SDS011;269;48.884;9.192;2023-02-23T04:47:08;21.27;;;19.17;;
568;SDS011;269;48.884;9.192;2023-02-23T04:49:36;23.20;;;20.80;;
568;SDS011;269;48.884;9.192;2023-02-23T04:52:05;23.33;;;20.85;;
568;SDS011;269;48.884;9.192;2023-02-23T04:54:32;23.95;;;20.73;;
568;SDS011;269;48.884;9.192;2023-02-23T04:57:02;23.10;;;20.80;;
568;SDS011;269;48.884;9.192;2023-02-23T04:59:29;24.42;;;20.67;;
568;SDS011;269;48.884;9.192;2023-02-23T05:01:56;24.10;;;21.52;;
568;SDS011;269;48.884;9.192;2023-02-23T05:04:24;25.38;;;22.00;;
568;SDS011;269;48.884;9.192;2023-02-23T05:06:51;23.10;;;20.45;;
568;SDS011;269;48.884;9.192;2023-02-23T05:09:20;22.98;;;20.65;;
568;SDS011;269;48.884;9.192;2023-02-23T05:11:47;24.20;;;21.50;;
568;SDS011;269;48.884;9.192;2023-02-23T05:14:14;23.98;;;21.48;;
568;SDS011;269;48.884;9.192;2023-02-23T05:16:41;28.73;;;21.27;;
568;SDS011;269;48.884;9.192;2023-02-23T05:19:08;24.73;;;22.27;;
568;SDS011;269;48.884;9.192;2023-02-23T05:21:36;24.83;;;22.13;;
568;SDS011;269;48.884;9.192;2023-02-23T05:24:04;25.98;;;23.23;;
568;SDS011;269;48.884;9.192;2023-02-23T05:26:32;25.83;;;23.05;;
568;SDS011;269;48.884;9.192;2023-02-23T05:29:00;25.10;;;22.60;;
568;SDS011;269;48.884;9.192;2023-02-23T05:31:27;25.58;;;22.88;;
568;SDS011;269;48.884;9.192;2023-02-23T05:33:54;24.63;;;21.95;;
568;SDS011;269;48.884;9.192;2023-02-23T05:36:21;24.98;;;22.38;;
568;SDS011;269;48.884;9.192;2023-02-23T05:38:48;23.52;;;21.17;;
568;SDS011;269;48.884;9.192;2023-02-23T05:41:15;23.48;;;21.02;;
568;SDS011;269;48.884;9.192;2023-02-23T05:43:47;26.58;;;22.85;;
568;SDS011;269;48.884;9.192;2023-02-23T05:46:17;26.52;;;22.15;;
568;SDS011;269;48.884;9.192;2023-02-23T05:48:46;23.75;;;21.42;;
568;SDS011;269;48.884;9.192;2023-02-23T05:51:14;24.20;;;21.50;;
568;SDS011;269;48.884;9.192;2023-02-23T05:53:42;24.75;;;22.13;;
568;SDS011;269;48.884;9.192;2023-02-23T05:56:11;26.17;;;23.45;;
568;SDS011;269;48.884;9.192;2023-02-23T05:58:42;26.02;;;23.23;;
568;SDS011;269;48.884;9.192;2023-02-23T06:01:11;25.90;;;23.15;;
568;SDS011;269;48.884;9.192;2023-02-23T06:03:38;26.85;;;24.20;;
568;SDS011;269;48.884;9.192;2023-02-23T06:06:05;27.30;;;24.40;;
568;SDS011;269;48.884;9.192;2023-02-23T06:08:32;28.20;;;25.40;;
568;SDS011;269;48.884;9.192;2023-02-23T06:11:00;27.83;;;24.70;;
568;SDS011;269;48.884;9.192;2023-02-23T06:13:28;26.55;;;23.83;;
568;SDS011;269;48.884;9.192;2023-02-23T06:15:55;26.88;;;23.98;;
568;SDS011;269;48.884;9.192;2023-02-23T06:18:25;27.67;;;24.83;;
568;SDS011;269;48.884;9.192;2023-02-23T06:20:52;29.88;;;25.80;;
568;SDS011;269;48.884;9.192;2023-02-23T06:23:19;33.25;;;26.38;;
568;SDS011;269;48.884;9.192;2023-02-23T06:25:46;28.50;;;24.85;;
568;SDS011;269;48.884;9.192;2023-02-23T06:28:13;28.77;;;26.00;;
568;SDS011;269;48.884;9.192;2023-02-23T06:30:41;29.58;;;26.30;;
568;SDS011;269;48.884;9.192;2023-02-23T06:33:08;29.30;;;25.88;;
568;SDS011;269;48.884;9.192;2023-02-23T06:35:37;27.45;;;24.63;;
568;SDS011;269;48.884;9.192;2023-02-23T06:38:04;30.00;;;26.67;;
568;SDS011;269;48.884;9.192;2023-02-23T06:40:31;28.58;;;25.70;;
568;SDS011;269;48.884;9.192;2023-02-23T06:42:59;28.25;;;25.33;;
568;SDS011;269;48.884;9.192;2023-02-23T06:45:27;29.70;;;26.50;;
568;SDS011;269;48.884;9.192;2023-02-23T06:47:56;29.08;;;25.83;;
568;SDS011;269;48.884;9.192;2023-02-23T06:50:23;28.42;;;25.48;;
568;SDS011;269;48.884;9.192;2023-02-23T06:52:51;29.63;;;26.40;;
568;SDS011;269;48.884;9.192;2023-02-23T06:55:19;30.73;;;26.25;;
568;SDS011;269;48.884;9.192;2023-02-23T06:57:47;30.33;;;27.08;;
568;SDS011;269;48.884;9.192;2023-02-23T07:00:16;30.42;;;27.23;;
568;SDS011;269;48.884;9.192;2023-02-23T07:02:44;31.70;;;27.83;;
568;SDS011;269;48.884;9.192;2023-02-23T07:05:11;30.77;;;27.60;;
568;SDS011;269;48.884;9.192;2023-02-23T07:07:38;30.25;;;27.15;;
568;SDS011;269;48.884;9.192;2023-02-23T07:10:07;33.35;;;28.23;;
568;SDS011;269;48.884;9.192;2023-02-23T07:12:35;30.50;;;27.20;;
568;SDS011;269;48.884;9.192;2023-02-23T07:15:02;28.40;;;25.45;;
568;SDS011;269;48.884;9.192;2023-02-23T07:17:30;30.65;;;26.38;;
568;SDS011;269;48.884;9.192;2023-02-23T07:19:57;28.50;;;25.50;;
568;SDS011;269;48.884;9.192;2023-02-23T07:22:24;28.10;;;25.10;;
568;SDS011;269;48.884;9.192;2023-02-23T07:24:53;29.35;;;26.05;;
568;SDS011;269;48.884;9.192;2023-02-23T07:27:22;30.30;;;27.00;;
568;SDS011;269;48.884;9.192;2023-02-23T07:29:49;30.13;;;27.10;;
568;SDS011;269;48.884;9.192;2023-02-23T07:32:16;33.80;;;27.35;;
568;SDS011;269;48.884;9.192;2023-02-23T07:34:43;29.05;;;25.92;;
568;SDS011;269;48.884;9.192;2023-02-23T07:37:11;31.85;;;28.33;;
568;SDS011;269;48.884;9.192;2023-02-23T07:39:39;29.15;;;26.15;;
568;SDS011;269;48.884;9.192;2023-02-23T07:42:06;30.08;;;26.95;;
568;SDS011;269;48.884;9.192;2023-02-23T07:44:34;30.42;;;27.05;;
568;SDS011;269;48.884;9.192;2023-02-23T07:47:02;29.65;;;26.70;;
568;SDS011;269;48.884;9.192;2023-02-23T07:49:29;30.17;;;26.75;;
568;SDS011;269;48.884;9.192;2023-02-23T07:51:57;30.10;;;26.42;;
568;SDS011;269;48.884;9.192;2023-02-23T07:54:24;28.35;;;25.58;;
568;SDS011;269;48.884;9.192;2023-02-23T07:56:51;30.00;;;26.90;;
568;SDS011;269;48.884;9.192;2023-02-23T07:59:18;28.95;;;26.05;;
568;SDS011;269;48.884;9.192;2023-02-23T08:01:47;28.60;;;25.48;;
568;SDS011;269;48.884;9.192;2023-02-23T08:04:15;28.27;;;25.40;;
568;SDS011;269;48.884;9.192;2023-02-23T08:06:42;28.83;;;26.08;;
568;SDS011;269;48.884;9.192;2023-02-23T08:09:09;27.75;;;24.90;;
568;SDS011;269;48.884;9.192;2023-02-23T08:11:37;27.88;;;24.83;;
568;SDS011;269;48.884;9.192;2023-02-23T08:14:04;29.30;;;26.30;;
568;SDS011;269;48.884;9.192;2023-02-23T08:16:32;28.17;;;25.27;;
568;SDS011;269;48.884;9.192;2023-02-23T08:19:00;29.45;;;25.48;;
568;SDS011;269;48.884;9.192;2023-02-23T08:21:28;28.90;;;25.48;;
568;SDS011;269;48.884;9.192;2023-02-23T08:23:56;28.67;;;25.77;;
568;SDS011;269;48.884;9.192;2023-02-23T08:26:23;25.70;;;23.05;;
568;SDS011;269;48.884;9.192;2023-02-23T08:28:50;26.52;;;23.25;;
568;SDS011;269;48.884;9.192;2023-02-23T08:31:18;27.42;;;24.42;;
568;SDS011;269;48.884;9.192;2023-02-23T08:33:47;26.23;;;23.42;;
568;SDS011;269;48.884;9.192;2023-02-23T08:36:16;25.23;;;22.52;;
568;SDS011;269;48.884;9.192;2023-02-23T08:38:45;25.50;;;21.75;;
568;SDS011;269;48.884;9.192;2023-02-23T08:41:12;24.30;;;21.88;;
568;SDS011;269;48.884;9.192;2023-02-23T08:43:39;22.52;;;20.15;;
568;SDS011;269;48.884;9.192;2023-02-23T08:46:06;22.63;;;20.33;;
568;SDS011;269;48.884;9.192;2023-02-23T08:48:33;23.27;;;20.98;;
568;SDS011;269;48.884;9.192;2023-02-23T08:51:03;23.10;;;20.98;;
568;SDS011;269;48.884;9.192;2023-02-23T08:53:32;23.05;;;20.75;;
568;SDS011;269;48.884;9.192;2023-02-23T08:56:00;23.02;;;20.63;;
568;SDS011;269;48.884;9.192;2023-02-23T08:58:28;21.73;;;19.40;;
568;SDS011;269;48.884;9.192;2023-02-23T09:00:56;21.95;;;19.08;;
568;SDS011;269;48.884;9.192;2023-02-23T09:03:23;23.00;;;20.70;;
568;SDS011;269;48.884;9.192;2023-02-23T09:05:52;22.45;;;20.20;;
568;SDS011;269;48.884;9.192;2023-02-23T09:08:20;23.48;;;21.15;;
568;SDS011;269;48.884;9.192;2023-02-23T09:10:49;21.00;;;18.90;;
568;SDS011;269;48.884;9.192;2023-02-23T09:13:16;22.23;;;19.95;;
568;SDS011;269;48.884;9.192;2023-02-23T09:15:43;21.23;;;18.95;;
568;SDS011;269;48.884;9.192;2023-02-23T09:18:10;21.20;;;19.30;;
568;SDS011;269;48.884;9.192;2023-02-23T09:20:39;21.33;;;19.17;;
568;SDS011;269;48.884;9.192;2023-02-23T09:23:07;22.17;;;19.88;;
568;SDS011;269;48.884;9.192;2023-02-23T09:25:38;19.80;;;17.90;;
568;SDS011;269;48.884;9.192;2023-02-23T09:28:09;21.05;;;18.90;;
568;SDS011;269;48.884;9.192;2023-02-23T09:30:37;20.08;;;18.17;;
568;SDS011;269;48.884;9.192;2023-02-23T09:33:05;20.73;;;18.52;;
568;SDS011;269;48.884;9.192;2023-02-23T09:35:33;20.63;;;18.58;;
568;SDS011;269;48.884;9.192;2023-02-23T09:38:02;19.57;;;17.50;;
568;SDS011;269;48.884;9.192;2023-02-23T09:40:34;17.73;;;16.03;;
568;SDS011;269;48.884;9.192;2023-02-23T09:43:11;18.92;;;17.15;;
568;SDS011;269;48.884;9.192;2023-02-23T09:45:42;19.03;;;15.63;;
568;SDS011;269;48.884;9.192;2023-02-23T09:48:14;16.87;;;15.20;;
568;SDS011;269;48.884;9.192;2023-02-23T09:50:44;17.10;;;15.50;;
568;SDS011;269;48.884;9.192;2023-02-23T09:53:25;16.60;;;15.00;;
568;SDS011;269;48.884;9.192;2023-02-23T09:55:57;15.70;;;14.20;;
568;SDS011;269;48.884;9.192;2023-02-23T09:58:27;15.87;;;14.17;;
568;SDS011;269;48.884;9.192;2023-02-23T10:04:05;15.43;;;13.73;;
568;SDS011;269;48.884;9.192;2023-02-23T10:06:36;14.23;;;12.60;;
568;SDS011;269;48.884;9.192;2023-02-23T10:09:11;14.03;;;12.73;;
568;SDS011;269;48.884;9.192;2023-02-23T10:11:44;13.07;;;11.87;;
568;SDS011;269;48.884;9.192;2023-02-23T10:14:24;11.27;;;10.20;;
568;SDS011;269;48.884;9.192;2023-02-23T10:17:08;10.90;;;9.90;;
568;SDS011;269;48.884;9.192;2023-02-23T10:19:43;11.07;;;9.93;;
568;SDS011;269;48.884;9.192;2023-02-23T10:22:15;11.63;;;10.60;;
568;SDS011;269;48.884;9.192;2023-02-23T10:24:48;11.80;;;10.80;;
568;SDS011;269;48.884;9.192;2023-02-23T10:27:20;10.07;;;9.03;;
568;SDS011;269;48.884;9.192;2023-02-23T10:29:52;8.80;;;8.00;;
568;SDS011;269;48.884;9.192;2023-02-23T10:32:22;11.10;;;10.23;;
568;SDS011;269;48.884;9.192;2023-02-23T10:34:53;10.83;;;9.70;;
568;SDS011;269;48.884;9.192;2023-02-23T10:37:22;12.00;;;11.00;;
568;SDS011;269;48.884;9.192;2023-02-23T10:39:49;10.70;;;9.63;;
568;SDS011;269;48.884;9.192;2023-02-23T10:42:19;7.00;;;6.40;;
568;SDS011;269;48.884;9.192;2023-02-23T10:44:54;6.77;;;5.97;;
568;SDS011;269;48.884;9.192;2023-02-23T10:47:23;8.57;;;7.77;;
568;SDS011;269;48.884;9.192;2023-02-23T10:49:53;10.43;;;9.40;;
568;SDS011;269;48.884;9.192;2023-02-23T10:52:25;12.97;;;11.77;;
568;SDS011;269;48.884;9.192;2023-02-23T10:54:55;11.17;;;9.93;;
568;SDS011;269;48.884;9.192;2023-02-23T10:57:24;12.27;;;11.03;;
568;SDS011;269;48.884;9.192;2023-02-23T11:00:02;12.07;;;10.97;;
568;SDS011;269;48.884;9.192;2023-02-23T11:02:33;11.60;;;10.60;;
568;SDS011;269;48.884;9.192;2023-02-23T11:05:02;12.10;;;10.90;;
568;SDS011;269;48.884;9.192;2023-02-23T11:07:30;10.73;;;9.63;;
568;SDS011;269;48.884;9.192;2023-02-23T11:10:01;10.70;;;9.50;;
568;SDS011;269;48.884;9.192;2023-02-23T11:12:51;11.90;;;10.73;;
568;SDS011;269;48.884;9.192;2023-02-23T11:15:24;12.63;;;11.33;;
568;SDS011;269;48.884;9.192;2023-02-23T11:17:54;12.60;;;11.40;;
568;SDS011;269;48.884;9.192;2023-02-23T11:20:24;11.90;;;10.90;;
568;SDS011;269;48.884;9.192;2023-02-23T11:23:00;11.70;;;10.60;;
568;SDS011;269;48.884;9.192;2023-02-23T11:25:28;10.67;;;9.67;;
568;SDS011;269;48.884;9.192;2023-02-23T11:27:56;12.40;;;11.20;;
568;SDS011;269;48.884;9.192;2023-02-23T11:30:27;11.70;;;10.23;;
568;SDS011;269;48.884;9.192;2023-02-23T11:33:01;10.27;;;9.27;;
568;SDS011;269;48.884;9.192;2023-02-23T11:35:34;11.90;;;8.20;;
568;SDS011;269;48.884;9.192;2023-02-23T11:38:13;8.30;;;7.30;;
568;SDS011;269;48.884;9.192;2023-02-23T11:40:42;7.73;;;7.03;;
568;SDS011;269;48.884;9.192;2023-02-23T11:43:24;8.33;;;7.57;;
568;SDS011;269;48.884;9.192;2023-02-23T11:45:53;8.70;;;7.90;;
568;SDS011;269;48.884;9.192;2023-02-23T11:48:24;8.63;;;7.57;;
568;SDS011;269;48.884;9.192;2023-02-23T11:50:56;7.83;;;7.10;;
568;SDS011;269;48.884;9.192;2023-02-23T11:53:27;6.10;;;4.80;;
568;SDS011;269;48.884;9.192;2023-02-23T11:55:57;4.73;;;4.23;;
568;SDS011;269;48.884;9.192;2023-02-23T11:58:29;4.73;;;4.33;;
568;SDS011;269;48.884;9.192;2023-02-23T12:01:05;5.00;;;4.50;;
568;SDS011;269;48.884;9.192;2023-02-23T12:03:37;5.30;;;3.63;;
568;SDS011;269;48.884;9.192;2023-02-23T12:06:10;4.60;;;3.40;;
568;SDS011;269;48.884;9.192;2023-02-23T12:08:38;5.60;;;3.83;;
568;SDS011;269;48.884;9.192;2023-02-23T12:11:11;6.47;;;3.30;;
568;SDS011;269;48.884;9.192;2023-02-23T12:13:42;4.77;;;3.37;;
568;SDS011;269;48.884;9.192;2023-02-23T12:16:15;4.30;;;3.37;;
568;SDS011;269;48.884;9.192;2023-02-23T12:18:46;5.67;;;3.53;;
568;SDS011;269;48.884;9.192;2023-02-23T12:21:23;6.43;;;3.70;;
568;SDS011;269;48.884;9.192;2023-02-23T12:23:58;4.33;;;3.80;;
568;SDS011;269;48.884;9.192;2023-02-23T12:26:32;4.10;;;3.77;;
568;SDS011;269;48.884;9.192;2023-02-23T12:29:09;5.23;;;3.57;;
568;SDS011;269;48.884;9.192;2023-02-23T12:31:46;7.30;;;4.40;;
568;SDS011;269;48.884;9.192;2023-02-23T12:34:17;8.03;;;5.07;;
568;SDS011;269;48.884;9.192;2023-02-23T12:36:53;8.23;;;5.50;;
568;SDS011;269;48.884;9.192;2023-02-23T12:39:25;7.53;;;6.80;;
568;SDS011;269;48.884;9.192;2023-02-23T12:41:58;6.83;;;6.13;;
568;SDS011;269;48.884;9.192;2023-02-23T12:44:33;6.23;;;5.30;;
568;SDS011;269;48.884;9.192;2023-02-23T12:47:08;5.37;;;4.70;;
568;SDS011;269;48.884;9.192;2023-02-23T12:49:46;4.97;;;3.97;;
568;SDS011;269;48.884;9.192;2023-02-23T12:52:23;5.00;;;4.10;;
568;SDS011;269;48.884;9.192;2023-02-23T12:54:54;5.57;;;4.10;;
568;SDS011;269;48.884;9.192;2023-02-23T12:57:24;5.37;;;4.67;;
568;SDS011;269;48.884;9.192;2023-02-23T13:03:01;5.43;;;4.60;;
568;SDS011;269;48.884;9.192;2023-02-23T13:05:55;6.07;;;5.50;;
568;SDS011;269;48.884;9.192;2023-02-23T13:08:32;6.03;;;5.20;;
568;SDS011;269;48.884;9.192;2023-02-23T13:11:14;5.10;;;4.37;;
568;SDS011;269;48.884;9.192;2023-02-23T13:13:49;4.50;;;3.73;;
568;SDS011;269;48.884;9.192;2023-02-23T13:16:22;5.87;;;3.50;;
568;SDS011;269;48.884;9.192;2023-02-23T13:18:58;3.77;;;3.47;;
568;SDS011;269;48.884;9.192;2023-02-23T13:21:36;4.87;;;3.63;;
568;SDS011;269;48.884;9.192;2023-02-23T13:24:07;4.23;;;3.23;;
568;SDS011;269;48.884;9.192;2023-02-23T13:26:41;3.93;;;3.13;;
568;SDS011;269;48.884;9.192;2023-02-23T13:29:19;4.13;;;3.30;;
568;SDS011;269;48.884;9.192;2023-02-23T13:31:56;5.50;;;3.47;;
568;SDS011;269;48.884;9.192;2023-02-23T13:34:27;6.07;;;3.93;;
568;SDS011;269;48.884;9.192;2023-02-23T13:36:56;4.20;;;2.90;;
568;SDS011;269;48.884;9.192;2023-02-23T13:39:41;6.77;;;3.53;;
568;SDS011;269;48.884;9.192;2023-02-23T13:45:30;4.97;;;3.40;;
568;SDS011;269;48.884;9.192;2023-02-23T13:48:05;5.17;;;3.80;;
568;SDS011;269;48.884;9.192;2023-02-23T13:50:46;6.07;;;3.50;;
568;SDS011;269;48.884;9.192;2023-02-23T13:53:32;3.70;;;2.50;;
568;SDS011;269;48.884;9.192;2023-02-23T13:56:06;6.00;;;3.27;;
568;SDS011;269;48.884;9.192;2023-02-23T13:58:35;5.40;;;3.77;;
568;SDS011;269;48.884;9.192;2023-02-23T14:01:03;4.40;;;3.30;;
568;SDS011;269;48.884;9.192;2023-02-23T14:03:46;5.07;;;3.40;;
568;SDS011;269;48.884;9.192;2023-02-23T14:06:21;7.50;;;3.20;;
568;SDS011;269;48.884;9.192;2023-02-23T14:08:51;5.10;;;3.70;;
568;SDS011;269;48.884;9.192;2023-02-23T14:11:36;5.60;;;4.20;;
568;SDS011;269;48.884;9.192;2023-02-23T14:14:10;6.87;;;4.70;;
568;SDS011;269;48.884;9.192;2023-02-23T14:16:41;7.10;;;5.53;;
568;SDS011;269;48.884;9.192;2023-02-23T14:19:12;6.60;;;5.67;;
568;SDS011;269;48.884;9.192;2023-02-23T14:21:59;6.40;;;5.63;;
568;SDS011;269;48.884;9.192;2023-02-23T14:24:30;5.97;;;5.47;;
568;SDS011;269;48.884;9.192;2023-02-23T14:32:54;5.50;;;4.97;;
568;SDS011;269;48.884;9.192;2023-02-23T14:35:42;7.77;;;5.30;;
568;SDS011;269;48.884;9.192;2023-02-23T14:38:22;6.07;;;4.80;;
568;SDS011;269;48.884;9.192;2023-02-23T14:40:57;4.97;;;4.50;;
568;SDS011;269;48.884;9.192;2023-02-23T14:43:32;5.47;;;4.40;;
568;SDS011;269;48.884;9.192;2023-02-23T14:46:11;5.63;;;4.70;;
568;SDS011;269;48.884;9.192;2023-02-23T14:48:44;6.20;;;5.00;;
568;SDS011;269;48.884;9.192;2023-02-23T14:51:23;7.40;;;4.40;;
568;SDS011;269;48.884;9.192;2023-02-23T14:53:58;7.20;;;5.47;;
568;SDS011;269;48.884;9.192;2023-02-23T14:56:26;5.70;;;5.10;;
568;SDS011;269;48.884;9.192;2023-02-23T14:58:53;6.43;;;5.17;;
568;SDS011;269;48.884;9.192;2023-02-23T15:01:32;6.10;;;5.00;;
568;SDS011;269;48.884;9.192;2023-02-23T15:04:08;7.47;;;5.73;;
568;SDS011;269;48.884;9.192;2023-02-23T15:06:37;6.50;;;5.40;;
568;SDS011;269;48.884;9.192;2023-02-23T15:09:10;7.93;;;5.97;;
568;SDS011;269;48.884;9.192;2023-02-23T15:11:42;9.00;;;5.67;;
568;SDS011;269;48.884;9.192;2023-02-23T15:14:13;8.50;;;5.23;;
568;SDS011;269;48.884;9.192;2023-02-23T15:16:41;7.77;;;5.43;;
568;SDS011;269;48.884;9.192;2023-02-23T15:19:12;5.23;;;4.73;;
568;SDS011;269;48.884;9.192;2023-02-23T15:21:47;7.93;;;5.53;;
568;SDS011;269;48.884;9.192;2023-02-23T15:24:20;7.10;;;5.30;;
568;SDS011;269;48.884;9.192;2023-02-23T15:26:50;6.03;;;5.43;;
568;SDS011;269;48.884;9.192;2023-02-23T15:29:18;6.23;;;4.60;;
568;SDS011;269;48.884;9.192;2023-02-23T15:31:47;5.70;;;4.80;;
568;SDS011;269;48.884;9.192;2023-02-23T15:34:17;5.73;;;4.90;;
568;SDS011;269;48.884;9.192;2023-02-23T15:36:50;10.53;;;6.70;;
568;SDS011;269;48.884;9.192;2023-02-23T15:39:29;5.90;;;5.30;;
568;SDS011;269;48.884;9.192;2023-02-23T15:42:02;7.33;;;5.80;;
568;SDS011;269;48.884;9.192;2023-02-23T15:44:31;8.00;;;6.23;;
568;SDS011;269;48.884;9.192;2023-02-23T15:47:01;6.80;;;5.57;;
568;SDS011;269;48.884;9.192;2023-02-23T15:49:32;10.23;;;7.67;;
568;SDS011;269;48.884;9.192;2023-02-23T15:52:01;8.07;;;6.60;;
568;SDS011;269;48.884;9.192;2023-02-23T15:54:34;8.13;;;6.20;;
568;SDS011;269;48.884;9.192;2023-02-23T15:57:15;7.53;;;5.67;;
568;SDS011;269;48.884;9.192;2023-02-23T15:59:45;5.47;;;4.97;;
568;SDS011;269;48.884;9.192;2023-02-23T16:02:13;7.70;;;7.00;;
568;SDS011;269;48.884;9.192;2023-02-23T16:04:44;7.50;;;5.80;;
568;SDS011;269;48.884;9.192;2023-02-23T16:07:15;8.17;;;5.93;;
568;SDS011;269;48.884;9.192;2023-02-23T16:09:49;6.77;;;6.13;;
568;SDS011;269;48.884;9.192;2023-02-23T16:12:18;8.80;;;6.43;;
568;SDS011;269;48.884;9.192;2023-02-23T16:14:49;8.80;;;5.97;;
568;SDS011;269;48.884;9.192;2023-02-23T16:17:24;8.30;;;5.90;;
568;SDS011;269;48.884;9.192;2023-02-23T16:19:55;8.03;;;6.10;;